Time;durP1;ratioP1;P1;durP2;ratioP2;P2;SDS_P1;SDS_P2;PMS_P1;PMS_P2;Temp;Humidity;BMP_temperature;BMP_pressure;BME280_temperature;BME280_humidity;BME280_pressure;Samples;Min_cycle;Max_cycle;Signal;HPM_P1;HPM_P2
2023/08/22 00:01:13;;;;;;;11.60;8.90;;;;;;;21.92;100.00;100720.77;177897;1263;46070;-84
2023/08/22 00:05:17;;;;;;;8.70;7.80;;;;;;;21.89;100.00;100721.85;177582;1259;58219;-84
2023/08/22 00:09:20;;;;;;;15.50;8.20;;;;;;;21.80;100.00;100715.75;177657;1263;46447;-85
2023/08/22 00:13:23;;;;;;;9.00;7.80;;;;;;;21.76;100.00;100711.95;177765;1262;45129;-84
2023/08/22 00:17:27;;;;;;;8.30;6.60;;;;;;;21.74;100.00;100708.90;177418;1265;45980;-84
2023/08/22 00:21:30;;;;;;;12.20;9.00;;;;;;;21.74;100.00;100699.52;177774;1260;46167;-84
2023/08/22 00:25:33;;;;;;;12.00;8.40;;;;;;;21.75;100.00;100705.11;177561;1259;59294;-84
2023/08/22 00:29:36;;;;;;;6.60;6.00;;;;;;;21.78;100.00;100704.56;177375;1261;46172;-84
2023/08/22 00:33:40;;;;;;;7.70;6.60;;;;;;;21.80;100.00;100702.91;177736;1265;45893;-83
2023/08/22 00:37:43;;;;;;;10.00;7.60;;;;;;;21.82;100.00;100704.08;177428;1262;45998;-84
2023/08/22 00:41:46;;;;;;;9.10;7.60;;;;;;;21.73;100.00;100702.74;177080;1265;46105;-84
2023/08/22 00:45:50;;;;;;;7.20;6.50;;;;;;;21.66;100.00;100708.59;177455;1263;57594;-84
2023/08/22 00:49:53;;;;;;;8.00;7.20;;;;;;;21.68;100.00;100709.95;177539;1262;46179;-84
2023/08/22 00:53:56;;;;;;;6.90;5.90;;;;;;;21.64;100.00;100705.38;177628;1261;46098;-84
2023/08/22 00:58:00;;;;;;;7.90;5.80;;;;;;;21.54;100.00;100697.58;177469;1261;46574;-84
2023/08/22 01:02:04;;;;;;;10.10;8.40;;;;;;;21.53;100.00;100695.73;177319;1260;46053;-84
2023/08/22 01:06:22;;;;;;;8.40;7.60;;;;;;;21.50;100.00;100693.36;177563;1263;58229;-83
2023/08/22 01:10:33;;;;;;;9.90;6.80;;;;;;;21.47;100.00;100693.43;177673;1260;45987;-84
2023/08/22 01:14:44;;;;;;;11.90;7.00;;;;;;;21.48;100.00;100690.13;177760;1262;46106;-83
2023/08/22 01:18:48;;;;;;;7.80;7.10;;;;;;;21.48;100.00;100683.85;177317;1265;46044;-85
2023/08/22 01:22:51;;;;;;;16.60;7.50;;;;;;;21.47;100.00;100682.73;177904;1265;46207;-85
2023/08/22 01:26:55;;;;;;;7.50;6.70;;;;;;;21.46;100.00;100679.08;177429;1261;59605;-84
2023/08/22 01:31:11;;;;;;;8.20;7.00;;;;;;;21.44;100.00;100682.17;177167;1262;46127;-85
2023/08/22 01:35:22;;;;;;;8.50;5.70;;;;;;;21.37;100.00;100682.86;177626;1262;45971;-85
2023/08/22 01:39:27;;;;;;;7.20;6.30;;;;;;;21.34;100.00;100678.38;177396;1265;46043;-85
2023/08/22 01:43:34;;;;;;;8.90;7.00;;;;;;;21.26;100.00;100673.90;177057;1259;46165;-84
2023/08/22 01:47:38;;;;;;;6.30;5.30;;;;;;;21.15;100.00;100675.73;177221;1262;58261;-85
2023/08/22 01:51:41;;;;;;;6.40;5.80;;;;;;;21.11;100.00;100678.64;176951;1261;46081;-84
2023/08/22 01:55:45;;;;;;;11.40;8.30;;;;;;;21.07;100.00;100678.46;177501;1265;46083;-85
2023/08/22 01:59:48;;;;;;;9.90;7.40;;;;;;;21.06;100.00;100671.59;177138;1264;46188;-85
2023/08/22 02:03:51;;;;;;;9.20;8.00;;;;;;;21.09;100.00;100670.66;177392;1263;44084;-85
2023/08/22 02:07:55;;;;;;;5.60;5.00;;;;;;;21.14;100.00;100666.32;177714;1263;59925;-85
2023/08/22 02:11:58;;;;;;;6.00;5.20;;;;;;;21.16;100.00;100662.98;177559;1261;46066;-84
2023/08/22 02:16:02;;;;;;;7.50;6.80;;;;;;;21.08;100.00;100656.92;178096;1261;46012;-84
2023/08/22 02:20:07;;;;;;;11.00;8.30;;;;;;;21.04;100.00;100653.24;177796;1263;46133;-85
2023/08/22 02:24:10;;;;;;;8.80;7.90;;;;;;;21.02;100.00;100650.33;177641;1262;46378;-85
2023/08/22 02:28:14;;;;;;;10.70;8.70;;;;;;;21.05;100.00;100648.29;177316;1265;57206;-84
2023/08/22 02:32:17;;;;;;;8.60;7.70;;;;;;;21.07;100.00;100651.46;177511;1260;45961;-85
2023/08/22 02:36:21;;;;;;;9.30;8.30;;;;;;;21.07;100.00;100653.13;177329;1261;45956;-85
2023/08/22 02:40:24;;;;;;;9.80;7.30;;;;;;;21.10;100.00;100652.20;177283;1261;46119;-85
2023/08/22 02:44:27;;;;;;;17.80;7.80;;;;;;;21.07;100.00;100652.71;177295;1261;46040;-85
2023/08/22 02:48:31;;;;;;;16.80;6.80;;;;;;;20.96;100.00;100649.55;177424;1264;58027;-85
2023/08/22 02:52:35;;;;;;;6.30;5.70;;;;;;;20.81;100.00;100644.49;177298;1265;46141;-85
2023/08/22 02:56:39;;;;;;;9.00;6.40;;;;;;;20.79;100.00;100641.14;177772;1264;46020;-84
2023/08/22 03:00:46;;;;;;;7.30;6.60;;;;;;;20.70;100.00;100641.20;177750;1265;44794;-84
2023/08/22 03:04:50;;;;;;;13.60;8.10;;;;;;;20.62;100.00;100640.86;177232;1261;45959;-83
2023/08/22 03:08:54;;;;;;;10.60;6.10;;;;;;;20.59;100.00;100634.64;177457;1266;59722;-84
2023/08/22 03:12:58;;;;;;;7.60;6.00;;;;;;;20.52;100.00;100632.25;177627;1261;46069;-85
2023/08/22 03:17:02;;;;;;;8.00;6.00;;;;;;;20.52;100.00;100629.64;177535;1260;45655;-85
2023/08/22 03:21:05;;;;;;;8.10;6.00;;;;;;;20.50;100.00;100634.56;177318;1262;46028;-84
2023/08/22 03:25:08;;;;;;;10.50;7.70;;;;;;;20.45;100.00;100636.16;177448;1261;46109;-84
2023/08/22 03:29:12;;;;;;;11.80;6.60;;;;;;;20.47;100.00;100633.77;177385;1262;57764;-85
2023/08/22 03:33:15;;;;;;;12.10;6.80;;;;;;;20.43;100.00;100633.47;177298;1264;45992;-84
2023/08/22 03:37:19;;;;;;;9.50;5.40;;;;;;;20.44;100.00;100627.79;177392;1265;44816;-85
2023/08/22 03:41:22;;;;;;;14.80;5.50;;;;;;;20.36;100.00;100623.19;177221;1265;46576;-84
2023/08/22 03:45:26;;;;;;;6.60;4.40;;;;;;;20.35;100.00;100619.64;177635;1260;46028;-84
2023/08/22 03:49:30;;;;;;;8.60;5.50;;;;;;;20.36;100.00;100623.48;177610;1266;58200;-84
2023/08/22 03:53:35;;;;;;;15.10;6.90;;;;;;;20.38;100.00;100625.92;177452;1264;45995;-84
2023/08/22 03:57:38;;;;;;;17.20;4.30;;;;;;;20.35;100.00;100628.21;178285;1261;46121;-85
2023/08/22 04:01:43;;;;;;;14.80;5.70;;;;;;;20.27;100.00;100629.73;177237;1265;46217;-85
2023/08/22 04:05:46;;;;;;;7.00;6.00;;;;;;;20.27;100.00;100621.59;176993;1264;46115;-85
2023/08/22 04:09:49;;;;;;;6.90;6.20;;;;;;;20.33;100.00;100620.15;177029;1263;59782;-85
2023/08/22 04:13:52;;;;;;;8.50;7.60;;;;;;;20.35;100.00;100619.77;177085;1260;46467;-84
2023/08/22 04:17:56;;;;;;;11.50;10.40;;;;;;;20.47;100.00;100611.55;178036;1261;45999;-86
2023/08/22 04:21:59;;;;;;;14.20;10.40;;;;;;;20.62;100.00;100609.39;179948;1261;46018;-82
2023/08/22 04:26:02;;;;;;;26.40;12.00;;;;;;;20.70;100.00;100606.13;177893;1260;46097;-85
2023/08/22 04:30:07;;;;;;;25.90;14.90;;;;;;;20.79;100.00;100610.84;178476;1261;57920;-85
2023/08/22 04:34:10;;;;;;;20.70;9.50;;;;;;;20.89;100.00;100610.90;178806;1260;46435;-85
2023/08/22 04:38:14;;;;;;;12.40;9.60;;;;;;;20.92;100.00;100602.58;179235;1260;46000;-85
2023/08/22 04:42:17;;;;;;;15.50;8.70;;;;;;;20.87;100.00;100608.45;179363;1264;46114;-85
2023/08/22 04:46:20;;;;;;;18.00;8.40;;;;;;;20.89;100.00;100612.11;179966;1260;45673;-86
2023/08/22 04:50:24;;;;;;;16.30;8.60;;;;;;;21.04;100.00;100614.71;179705;1260;59591;-86
2023/08/22 04:54:28;;;;;;;22.50;9.80;;;;;;;21.21;100.00;100620.39;178029;1261;44270;-85
2023/08/22 04:58:32;;;;;;;15.50;8.60;;;;;;;21.20;100.00;100618.68;178015;1260;46442;-85
2023/08/22 05:02:35;;;;;;;15.60;7.30;;;;;;;21.23;100.00;100612.59;177438;1263;45940;-85
2023/08/22 05:06:39;;;;;;;9.70;5.80;;;;;;;21.55;100.00;100610.08;178350;1264;46101;-86
2023/08/22 05:10:43;;;;;;;6.20;5.60;;;;;;;22.13;100.00;100612.23;177988;1260;57005;-86
2023/08/22 05:14:46;;;;;;;5.50;5.00;;;;;;;22.80;100.00;100609.46;177784;1263;46742;-86
2023/08/22 05:18:49;;;;;;;6.40;5.80;;;;;;;23.58;100.00;100609.77;177436;1264;45987;-86
2023/08/22 05:22:53;;;;;;;7.30;6.60;;;;;;;24.32;100.00;100607.48;177674;1260;45373;-86
2023/08/22 05:26:56;;;;;;;7.20;6.50;;;;;;;24.88;100.00;100606.46;177520;1260;44907;-86
2023/08/22 05:30:59;;;;;;;7.50;6.80;;;;;;;25.32;100.00;100612.95;177905;1261;58245;-86
2023/08/22 05:35:03;;;;;;;10.80;6.80;;;;;;;25.68;100.00;100610.83;178262;1261;46057;-86
2023/08/22 05:39:06;;;;;;;8.40;7.50;;;;;;;25.60;98.81;100602.11;177290;1261;45972;-86
2023/08/22 05:43:09;;;;;;;7.70;6.30;;;;;;;25.06;98.84;100598.55;178050;1261;46176;-86
2023/08/22 05:47:13;;;;;;;7.70;7.00;;;;;;;24.78;100.00;100597.71;178007;1260;46131;-86
2023/08/22 05:51:16;;;;;;;8.30;6.20;;;;;;;24.91;100.00;100598.60;177785;1260;59604;-86
2023/08/22 05:55:19;;;;;;;7.60;6.60;;;;;;;25.30;100.00;100587.23;177612;1261;46057;-86
2023/08/22 05:59:23;;;;;;;9.70;7.60;;;;;;;25.66;100.00;100588.63;178222;1261;46101;-86
2023/08/22 06:03:26;;;;;;;10.80;8.80;;;;;;;25.96;99.95;100585.77;177563;1260;252543;-86
2023/08/22 06:07:30;;;;;;;10.20;8.50;;;;;;;26.20;98.55;100584.83;178029;1260;46104;-86
2023/08/22 06:11:33;;;;;;;8.40;6.80;;;;;;;26.19;97.75;100589.07;177761;1260;58297;-86
2023/08/22 06:15:36;;;;;;;12.40;9.40;;;;;;;26.38;97.66;100584.66;178019;1261;45968;-86
2023/08/22 06:19:40;;;;;;;11.20;8.50;;;;;;;26.65;95.63;100573.88;178735;1261;46220;-86
2023/08/22 06:23:43;;;;;;;11.40;8.90;;;;;;;26.83;91.85;100571.85;178118;1260;46113;-86
2023/08/22 06:27:46;;;;;;;11.20;8.10;;;;;;;26.88;90.63;100574.86;178000;1261;46005;-86
2023/08/22 06:31:49;;;;;;;9.60;7.70;;;;;;;26.82;89.84;100575.42;177811;1266;58683;-86
2023/08/22 06:35:53;;;;;;;13.60;9.20;;;;;;;26.82;91.32;100575.67;177795;1260;46575;-85
2023/08/22 06:39:56;;;;;;;9.00;7.60;;;;;;;26.85;90.80;100573.00;177582;1260;46068;-85
2023/08/22 06:44:00;;;;;;;13.20;8.50;;;;;;;26.98;90.39;100572.74;178024;1260;46151;-86
2023/08/22 06:48:04;;;;;;;10.00;8.00;;;;;;;27.11;89.70;100570.45;178452;1261;46085;-85
2023/08/22 06:52:08;;;;;;;12.20;9.10;;;;;;;27.21;89.49;100565.27;178119;1264;59661;-85
2023/08/22 06:56:11;;;;;;;10.80;7.70;;;;;;;27.27;88.91;100559.73;178342;1260;45990;-85
2023/08/22 07:00:16;;;;;;;23.30;18.30;;;;;;;27.36;91.32;100559.13;178046;1260;44835;-86
2023/08/22 07:04:20;;;;;;;25.70;20.00;;;;;;;27.36;87.32;100552.73;178146;1259;46057;-85
2023/08/22 07:08:24;;;;;;;67.30;44.30;;;;;;;27.50;88.29;100553.02;178195;1260;44719;-86
2023/08/22 07:12:27;;;;;;;57.50;31.40;;;;;;;27.56;87.53;100547.27;178903;1260;58667;-83
2023/08/22 07:16:30;;;;;;;17.40;15.50;;;;;;;27.52;89.84;100541.98;178297;1261;46058;-84
2023/08/22 07:20:34;;;;;;;12.00;10.80;;;;;;;27.63;88.37;100543.52;178640;1260;46057;-84
2023/08/22 07:24:37;;;;;;;9.90;8.90;;;;;;;27.70;90.26;100540.80;178677;1260;45248;-84
2023/08/22 07:28:41;;;;;;;9.00;8.20;;;;;;;27.88;89.23;100543.27;178920;1265;45644;-85
2023/08/22 07:32:44;;;;;;;10.40;8.30;;;;;;;27.91;88.97;100549.89;178405;1260;58418;-84
2023/08/22 07:36:48;;;;;;;8.90;6.80;;;;;;;27.95;87.77;100546.48;178709;1261;45868;-85
2023/08/22 07:41:01;;;;;;;14.40;8.00;;;;;;;28.02;86.87;100543.77;178687;1259;46048;31
2023/08/22 07:45:05;;;;;;;12.30;8.70;;;;;;;28.18;84.82;100539.80;180280;1262;44036;-80
2023/08/22 07:49:09;;;;;;;10.30;9.40;;;;;;;28.33;86.05;100535.60;180468;1262;43644;-80
2023/08/22 07:53:12;;;;;;;9.00;8.10;;;;;;;28.45;86.58;100532.11;180320;1261;58987;-80
2023/08/22 07:57:16;;;;;;;11.60;8.20;;;;;;;28.40;85.86;100526.63;180676;1262;44471;-80
2023/08/22 08:01:21;;;;;;;11.10;8.10;;;;;;;28.24;87.27;100523.09;180363;1262;43785;-80
2023/08/22 08:05:26;;;;;;;11.60;8.80;;;;;;;28.32;85.93;100522.09;180351;1262;45055;-80
2023/08/22 08:09:30;;;;;;;9.60;8.50;;;;;;;28.31;86.86;100518.34;180367;1262;43886;-80
2023/08/22 08:13:38;;;;;;;13.70;10.60;;;;;;;28.40;88.51;100514.65;180401;1261;58694;-80
2023/08/22 08:17:41;;;;;;;9.30;8.30;;;;;;;28.55;86.77;100510.87;180242;1262;43498;-80
2023/08/22 08:21:45;;;;;;;8.90;7.70;;;;;;;28.62;85.49;100506.48;180331;1262;46022;-80
2023/08/22 08:25:49;;;;;;;7.70;6.90;;;;;;;28.69;87.88;100507.95;180330;1262;44608;-80
2023/08/22 08:29:52;;;;;;;10.00;8.70;;;;;;;28.66;87.76;100512.02;180348;1262;43620;-81
2023/08/22 08:33:55;;;;;;;9.90;8.80;;;;;;;28.85;86.81;100512.10;180397;1262;57925;-80
2023/08/22 08:37:59;;;;;;;10.10;9.00;;;;;;;29.00;84.46;100509.58;180462;1262;44003;-80
2023/08/22 08:42:15;;;;;;;12.00;9.20;;;;;;;29.15;83.95;100501.20;180353;1262;44644;-81
2023/08/22 08:46:19;;;;;;;9.70;7.70;;;;;;;29.34;85.08;100497.00;180477;1264;43691;-80
2023/08/22 08:50:30;;;;;;;9.70;8.90;;;;;;;29.33;83.82;100493.69;180360;1262;46003;-80
2023/08/22 08:54:36;;;;;;;11.70;10.30;;;;;;;29.47;83.73;100497.29;180289;1262;58266;-80
2023/08/22 08:58:44;;;;;;;15.00;7.50;;;;;;;29.49;81.54;100493.07;180233;1262;43778;-81
2023/08/22 09:02:50;;;;;;;8.60;7.20;;;;;;;29.38;80.21;100489.52;180313;1262;44572;-81
2023/08/22 09:06:56;;;;;;;10.50;6.30;;;;;;;29.39;80.58;100489.53;180304;1262;44722;-81
2023/08/22 09:11:00;;;;;;;8.80;7.20;;;;;;;29.53;81.02;100484.16;180366;1262;44422;-81
2023/08/22 09:15:11;;;;;;;;;;;;;;;29.64;80.03;100480.44;180448;1262;59917;-80
2023/08/22 09:19:17;;;;;;;10.20;6.90;;;;;;;29.71;78.56;100481.42;180243;1262;44321;-81
2023/08/22 09:23:31;;;;;;;7.60;6.10;;;;;;;29.83;79.67;100481.78;180447;1262;45285;-80
2023/08/22 09:27:37;;;;;;;9.00;6.30;;;;;;;29.98;80.08;100473.14;180476;1262;46091;-81
2023/08/22 09:31:42;;;;;;;9.80;6.10;;;;;;;30.04;78.13;100469.17;180457;1261;49466;-81
2023/08/22 09:35:54;;;;;;;6.50;5.80;;;;;;;30.07;77.73;100465.00;180598;1262;57424;-81
2023/08/22 09:40:03;;;;;;;10.90;7.00;;;;;;;30.07;77.46;100466.60;180398;1262;44894;-80
2023/08/22 09:44:11;;;;;;;10.60;6.40;;;;;;;30.08;77.36;100460.96;180396;1261;44519;-80
2023/08/22 09:48:24;;;;;;;8.70;4.90;;;;;;;30.06;75.52;100457.14;180336;1262;46365;-80
2023/08/22 09:52:33;;;;;;;6.70;5.10;;;;;;;29.92;74.60;100455.38;180390;1262;43918;-80
2023/08/22 09:56:39;;;;;;;6.80;5.50;;;;;;;29.65;77.05;100453.20;180392;1262;59992;-80
2023/08/22 10:00:45;;;;;;;8.10;5.80;;;;;;;29.63;76.42;100443.36;180497;1262;44138;-81
2023/08/22 10:04:50;;;;;;;6.70;5.60;;;;;;;29.60;76.10;100438.29;180428;1262;43780;-81
2023/08/22 10:08:56;;;;;;;5.20;4.80;;;;;;;29.77;76.88;100436.85;180439;1262;45926;-80
2023/08/22 10:13:03;;;;;;;12.10;5.60;;;;;;;29.86;76.82;100430.93;180443;1262;46038;-80
2023/08/22 10:17:13;;;;;;;7.50;5.50;;;;;;;29.93;77.88;100420.08;180379;1262;57867;-81
2023/08/22 10:21:23;;;;;;;9.10;5.00;;;;;;;30.00;75.42;100421.01;180450;1262;45949;-80
2023/08/22 10:25:47;;;;;;;5.70;4.10;;;;;;;30.11;75.90;100417.61;180445;1262;46117;-80
2023/08/22 10:30:14;;;;;;;7.30;6.00;;;;;;;30.15;77.73;100407.58;180442;1261;43789;-80
2023/08/22 10:34:20;;;;;;;6.40;5.10;;;;;;;30.27;75.57;100405.80;180456;1261;44041;-80
2023/08/22 10:38:25;;;;;;;6.00;4.70;;;;;;;30.32;74.62;100398.64;180517;1262;60453;-81
2023/08/22 10:42:30;;;;;;;5.50;4.90;;;;;;;30.46;74.85;100401.04;179293;1259;46058;-85
2023/08/22 10:47:05;;;;;;;7.50;5.40;;;;;;;30.51;74.59;100400.67;178839;1259;44834;-85
2023/08/22 10:51:08;;;;;;;;;;;;;;;30.48;74.01;100398.20;178870;1259;44927;-85
2023/08/22 10:55:13;;;;;;;6.90;5.10;;;;;;;30.50;73.03;100389.52;179011;1262;45850;-85
2023/08/22 10:59:19;;;;;;;6.60;4.80;;;;;;;30.48;74.99;100383.17;179480;1259;65701;-85
2023/08/22 11:03:23;;;;;;;7.00;5.40;;;;;;;30.48;76.91;100381.47;178916;1259;44717;-85
2023/08/22 11:07:28;;;;;;;7.70;5.30;;;;;;;30.63;75.61;100376.21;179173;1259;45921;-85
2023/08/22 11:11:35;;;;;;;6.90;5.40;;;;;;;30.77;74.80;100372.64;179295;1259;46058;-84
2023/08/22 11:15:40;;;;;;;5.10;4.60;;;;;;;30.86;73.30;100372.58;179379;1259;46159;-85
2023/08/22 11:19:49;;;;;;;9.00;4.30;;;;;;;30.97;75.16;100367.38;179994;1254;89855;-62
2023/08/22 11:23:54;;;;;;;6.20;5.40;;;;;;;30.97;72.92;100363.61;180509;1264;43523;-79
2023/08/22 11:27:58;;;;;;;5.50;5.00;;;;;;;31.04;72.86;100363.11;179651;1260;44183;-85
2023/08/22 11:32:01;;;;;;;5.80;5.00;;;;;;;31.21;73.34;100355.74;179300;1261;45997;-84
2023/08/22 11:36:05;;;;;;;6.30;5.60;;;;;;;31.28;73.20;100356.86;179227;1261;44564;-85
2023/08/22 11:40:14;;;;;;;6.20;4.80;;;;;;;31.47;70.81;100348.14;179294;1263;58047;-85
2023/08/22 11:44:20;;;;;;;7.20;4.80;;;;;;;31.60;70.51;100347.12;179321;1262;46049;-85
2023/08/22 11:48:24;;;;;;;8.20;4.30;;;;;;;31.70;71.66;100345.04;179983;1261;45968;-79
2023/08/22 11:52:29;;;;;;;5.40;4.10;;;;;;;31.70;69.32;100338.39;180659;1259;44014;-80
2023/08/22 11:56:33;;;;;;;7.10;4.70;;;;;;;31.83;71.41;100331.72;180356;1261;45493;-79
2023/08/22 12:00:37;;;;;;;6.40;3.90;;;;;;;31.94;70.05;100326.27;180344;1260;58614;-79
2023/08/22 12:04:42;;;;;;;6.50;5.00;;;;;;;32.02;68.63;100325.04;180325;1254;45997;-84
2023/08/22 12:08:57;;;;;;;7.20;4.60;;;;;;;32.02;68.27;100323.27;179434;1262;46173;-85
2023/08/22 12:13:01;;;;;;;4.90;4.40;;;;;;;32.12;69.39;100318.97;178967;1262;45900;-85
2023/08/22 12:17:04;;;;;;;9.70;4.20;;;;;;;32.13;69.17;100313.95;179303;1264;46187;-85
2023/08/22 12:21:08;;;;;;;4.40;4.00;;;;;;;32.13;67.85;100310.17;178905;1266;58293;-85
2023/08/22 12:25:12;;;;;;;6.30;5.70;;;;;;;32.24;67.22;100303.31;179430;1262;44731;-85
2023/08/22 12:29:16;;;;;;;14.50;4.90;;;;;;;32.39;67.31;100295.13;179548;1262;43795;-83
2023/08/22 12:33:19;;;;;;;5.60;4.80;;;;;;;32.46;68.89;100287.64;179377;1262;46223;-83
2023/08/22 12:37:23;;;;;;;6.20;4.70;;;;;;;32.52;66.79;100285.73;179482;1262;45970;-83
2023/08/22 12:41:27;;;;;;;6.30;4.40;;;;;;;32.52;67.44;100280.95;179206;1262;57039;-83
2023/08/22 12:45:31;;;;;;;8.00;4.60;;;;;;;32.60;66.06;100277.54;179284;1262;46139;-83
2023/08/22 12:49:35;;;;;;;10.80;4.90;;;;;;;32.76;66.58;100276.28;179392;1262;43918;-83
2023/08/22 12:53:41;;;;;;;5.60;4.00;;;;;;;32.84;66.99;100268.67;179212;1262;44010;-83
2023/08/22 12:57:45;;;;;;;5.80;5.30;;;;;;;32.89;66.10;100265.61;179813;1262;43809;-83
2023/08/22 13:01:49;;;;;;;5.50;4.50;;;;;;;32.94;65.90;100260.60;179797;1262;59447;-83
2023/08/22 13:05:54;;;;;;;5.80;4.50;;;;;;;33.03;66.70;100255.53;179472;1262;46038;-83
2023/08/22 13:09:58;;;;;;;5.70;5.10;;;;;;;33.13;65.94;100249.27;179424;1262;44682;-83
2023/08/22 13:14:02;;;;;;;5.10;4.40;;;;;;;33.21;65.40;100236.91;179458;1262;45979;-83
2023/08/22 13:18:06;;;;;;;4.20;3.80;;;;;;;33.28;63.96;100227.32;179807;1260;44046;-79
2023/08/22 13:22:10;;;;;;;4.60;4.20;;;;;;;33.31;62.83;100221.13;180796;1260;58580;-80
2023/08/22 13:26:14;;;;;;;7.70;4.60;;;;;;;33.25;64.34;100222.74;180736;1261;44695;-79
2023/08/22 13:30:18;;;;;;;7.60;4.80;;;;;;;33.20;63.78;100223.04;180673;1261;43593;-79
2023/08/22 13:34:21;;;;;;;5.90;5.30;;;;;;;33.03;63.61;100226.05;180680;1262;44936;-79
2023/08/22 13:38:25;;;;;;;6.60;4.00;;;;;;;32.91;64.57;100224.96;180686;1260;44367;-80
2023/08/22 13:42:29;;;;;;;5.60;4.00;;;;;;;32.85;65.66;100236.34;180550;1259;58725;-80
2023/08/22 13:46:33;;;;;;;12.10;5.40;;;;;;;32.83;67.15;100232.44;180736;1262;44375;-79
2023/08/22 13:50:36;;;;;;;5.60;5.10;;;;;;;32.80;66.35;100227.91;180538;1260;43737;-80
2023/08/22 13:54:40;;;;;;;5.90;5.30;;;;;;;32.66;65.56;100222.38;180501;1260;44327;-81
2023/08/22 13:58:44;;;;;;;7.60;4.30;;;;;;;32.56;67.69;100218.41;180523;1261;44326;-82
2023/08/22 14:02:47;;;;;;;5.20;4.70;;;;;;;32.36;66.54;100198.73;180699;1261;59287;-81
2023/08/22 14:06:52;;;;;;;5.40;4.30;;;;;;;32.19;67.32;100195.40;180727;1261;44119;-82
2023/08/22 14:10:58;;;;;;;6.00;4.70;;;;;;;32.04;70.05;100202.91;180542;1263;43506;-80
2023/08/22 14:15:04;;;;;;;6.30;5.00;;;;;;;31.84;71.28;100202.86;180692;1260;45952;-81
2023/08/22 14:19:12;;;;;;;7.90;5.00;;;;;;;31.60;74.14;100201.77;180603;1260;45886;-81
2023/08/22 14:23:17;;;;;;;7.40;4.90;;;;;;;31.34;79.07;100195.50;180396;1261;58491;-81
2023/08/22 14:27:20;;;;;;;10.40;6.00;;;;;;;31.02;84.85;100184.80;180462;1260;44114;-81
2023/08/22 14:31:25;;;;;;;8.80;5.30;;;;;;;30.72;87.53;100194.61;180425;1262;46136;-80
2023/08/22 14:35:29;;;;;;;6.40;5.70;;;;;;;30.49;91.32;100225.95;180596;1260;43634;-81
2023/08/22 14:39:33;;;;;;;8.40;6.00;;;;;;;30.26;99.26;100233.25;180309;1260;46002;-82
2023/08/22 14:43:36;;;;;;;7.50;5.60;;;;;;;29.92;100.00;100224.05;180370;1260;58052;-81
2023/08/22 14:47:40;;;;;;;13.70;7.70;;;;;;;29.53;100.00;100212.55;180325;1260;44618;-82
2023/08/22 14:51:45;;;;;;;12.60;8.10;;;;;;;29.16;100.00;100245.88;180409;1261;44532;-82
2023/08/22 14:56:03;;;;;;;8.50;6.40;;;;;;;28.33;100.00;100273.14;180130;1260;44629;-82
2023/08/22 15:00:10;;;;;;;9.70;7.10;;;;;;;27.85;100.00;100279.74;180086;1260;46130;-82
2023/08/22 15:04:14;;;;;;;11.90;7.20;;;;;;;27.68;100.00;100275.05;180072;1264;58866;-83
2023/08/22 15:08:18;;;;;;;8.60;4.10;;;;;;;27.39;100.00;100229.71;180260;1260;46105;-82
2023/08/22 15:12:22;;;;;;;4.50;2.00;;;;;;;27.01;100.00;100232.53;180178;1260;43882;-82
2023/08/22 15:16:27;;;;;;;2.20;1.30;;;;;;;26.70;100.00;100233.54;180103;1260;44180;-81
2023/08/22 15:20:32;;;;;;;;;;;;;;;26.57;100.00;100231.33;180261;1260;43792;-82
2023/08/22 15:24:38;;;;;;;4.50;2.50;;;;;;;26.55;100.00;100218.30;180364;1260;57728;-81
2023/08/22 15:28:44;;;;;;;2.80;1.90;;;;;;;26.50;100.00;100214.03;180227;1263;43900;-82
2023/08/22 15:32:51;;;;;;;2.00;1.40;;;;;;;26.44;100.00;100224.23;180206;1260;45923;-81
2023/08/22 15:36:56;;;;;;;3.20;1.40;;;;;;;26.48;100.00;100232.23;180328;1260;43659;-81
2023/08/22 15:41:02;;;;;;;1.80;1.40;;;;;;;26.54;100.00;100230.22;179491;1260;44662;-86
2023/08/22 15:45:07;;;;;;;4.20;3.00;;;;;;;26.43;100.00;100235.70;179118;1260;58156;-87
2023/08/22 15:49:11;;;;;;;3.20;2.10;;;;;;;26.36;100.00;100235.86;178966;1260;46015;-85
2023/08/22 15:53:15;;;;;;;2.70;2.30;;;;;;;26.42;100.00;100234.16;179660;1260;46153;-84
2023/08/22 15:57:19;;;;;;;3.50;2.70;;;;;;;26.53;100.00;100229.69;179242;1260;44481;-86
2023/08/22 16:01:23;;;;;;;2.20;2.10;;;;;;;26.61;100.00;100219.86;179219;1260;43902;-87
2023/08/22 16:05:27;;;;;;;2.50;2.20;;;;;;;26.56;100.00;100218.60;179512;1260;58257;-88
2023/08/22 16:09:31;;;;;;;2.50;2.00;;;;;;;26.58;100.00;100212.58;179426;1260;45984;-88
2023/08/22 16:13:35;;;;;;;2.60;2.40;;;;;;;26.58;100.00;100206.75;179087;1260;46102;-89
2023/08/22 16:17:39;;;;;;;5.20;2.00;;;;;;;26.55;100.00;100203.35;179363;1261;46453;-88
2023/08/22 16:21:42;;;;;;;3.60;2.30;;;;;;;26.47;100.00;100211.77;178990;1261;44197;-88
2023/08/22 16:25:49;;;;;;;4.40;2.50;;;;;;;26.40;100.00;100202.91;179257;1260;58229;-89
2023/08/22 16:29:53;;;;;;;2.70;2.10;;;;;;;26.38;100.00;100194.96;179974;1262;44608;-79
2023/08/22 16:34:03;;;;;;;2.50;2.10;;;;;;;26.49;100.00;100202.21;180012;1260;46120;-85
2023/08/22 16:38:06;;;;;;;4.10;2.80;;;;;;;26.67;100.00;100213.95;179248;1262;46131;-84
2023/08/22 16:42:09;;;;;;;3.90;3.40;;;;;;;26.82;100.00;100222.85;180127;1266;46050;-83
2023/08/22 16:46:13;;;;;;;2.90;2.30;;;;;;;26.92;100.00;100229.98;179451;1262;58291;-82
2023/08/22 16:50:16;;;;;;;3.20;2.90;;;;;;;26.84;100.00;100226.92;179244;1260;45984;-83
2023/08/22 16:54:19;;;;;;;3.20;2.50;;;;;;;26.70;100.00;100220.20;178607;1264;44436;-82
2023/08/22 16:58:22;;;;;;;5.30;2.20;;;;;;;26.55;100.00;100222.48;178656;1264;46713;-81
2023/08/22 17:02:26;;;;;;;2.40;2.20;;;;;;;26.44;100.00;100219.04;178778;1261;45222;-80
2023/08/22 17:06:30;;;;;;;3.90;2.90;;;;;;;26.37;100.00;100216.41;178975;1263;60682;-82
2023/08/22 17:10:33;;;;;;;4.30;2.90;;;;;;;26.35;100.00;100215.57;178437;1261;45960;-82
2023/08/22 17:14:36;;;;;;;3.80;2.40;;;;;;;26.31;100.00;100220.56;178724;1266;46122;-81
2023/08/22 17:18:40;;;;;;;3.60;3.10;;;;;;;26.18;100.00;100226.44;178574;1263;49990;-81
2023/08/22 17:22:43;;;;;;;3.70;3.10;;;;;;;25.97;100.00;100236.05;178527;1263;46204;-81
2023/08/22 17:26:49;;;;;;;4.50;3.00;;;;;;;25.88;100.00;100236.76;178499;1266;58235;-81
2023/08/22 17:30:53;;;;;;;4.60;3.00;;;;;;;25.93;100.00;100238.32;178999;1261;44957;-82
2023/08/22 17:34:59;;;;;;;3.70;2.70;;;;;;;26.04;100.00;100234.99;179384;1265;44619;-80
2023/08/22 17:39:03;;;;;;;5.30;2.80;;;;;;;26.13;100.00;100241.80;179283;1260;46094;-80
2023/08/22 17:43:06;;;;;;;4.50;3.10;;;;;;;26.16;100.00;100245.30;179220;1262;46041;-80
2023/08/22 17:47:10;;;;;;;4.20;3.80;;;;;;;26.22;100.00;100242.47;179859;1261;60145;-81
2023/08/22 17:51:13;;;;;;;3.20;2.80;;;;;;;26.21;100.00;100238.30;179685;1263;46417;-82
2023/08/22 17:55:17;;;;;;;5.50;4.90;;;;;;;26.13;100.00;100243.11;180778;1262;43725;-82
2023/08/22 17:59:20;;;;;;;36.10;23.00;;;;;;;26.05;100.00;100249.62;179649;1264;43383;-82
2023/08/22 18:03:25;;;;;;;36.90;23.90;;;;;;;25.99;100.00;100260.06;177979;1265;285386;-82
2023/08/22 18:07:29;;;;;;;12.00;7.60;;;;;;;25.99;100.00;100268.65;178323;1263;58039;-80
2023/08/22 18:11:32;;;;;;;6.60;3.70;;;;;;;26.00;100.00;100273.55;177881;1261;45068;-80
2023/08/22 18:15:35;;;;;;;4.80;3.40;;;;;;;26.00;100.00;100283.65;178586;1260;46015;-78
2023/08/22 18:19:39;;;;;;;6.80;4.00;;;;;;;25.97;100.00;100288.80;178120;1262;46114;-80
2023/08/22 18:23:42;;;;;;;5.50;4.60;;;;;;;25.92;100.00;100289.23;178657;1262;45917;-80
2023/08/22 18:27:45;;;;;;;6.00;4.20;;;;;;;25.87;100.00;100301.57;178273;1263;58727;-80
2023/08/22 18:31:48;;;;;;;6.00;5.20;;;;;;;25.85;100.00;100298.29;178488;1262;46007;-81
2023/08/22 18:35:52;;;;;;;4.90;4.50;;;;;;;25.85;100.00;100301.72;178284;1262;44698;-81